Updated02/04/2020 01:45 
 

GeoURL
free counters
Scottish Weather Network UK Weather Network Cumulus Top Weather Sites

Peebles Weather - Nearby METAR Reports

Raw Data, Raw Data Expanded

Ignore low humidity and Dew Point values. Something wrong with the sensor.
Daytime temperatures are in direct sunlight so may be higher than official air temperature values.
As with any other website, we log your IP address and browser type in the server logs for diagnostic reasons. Cookies are used to record visit time and gauges preferences. No personal information is stored or processed.

All times are in local time (GMT, or BST in summer) unless specified.

2020/04/02 00:20 EGPH 020020Z 25014KT 9999 OVC032 07/04 Q1013
6.8°C 0.0 mm 0.0 mm 0.0 mm 5.6 mph 9.8 mph 1008.9 hPa 77% X-Ray Solar Flare Level
Planetary K-Index
Planetary K-Index History
Station Warn Rain Snow Flood Wind Ltng Heat Cold Glob Moon Temp Rain 1h Rain Thu Rain 24h Wind 10m Gust Pressure Hum Proton Levels

m Waxing Gibbous Cold F2-W F: A: Kp:0 SSN:0

METAR Reports

 

EGPH - Edinburgh Airpor, United Kingdom
Distance from station: NNW 22mi, 36km
Updated: 02/04/2020 01:20
Overcast
Overcast
 Wind from WSW
Wind: WSW 16 mph , 26 km/h
Temperature: 7°C
Wind Chill: 3°C
Dew Point: 4°C
Humidity: 81%
Barometer: 1013 hPa
Clouds: Overcast
Visibility: 6 miles , 10 km
Cloud details: Overcast 975 m
2020/04/02 00:20 EGPH 020020Z 25014KT 9999 OVC032 07/04 Q1013
EGOM - Spadeadam, United Kingdom
Distance from station: SSE 49mi, 79km
Updated: 02/04/2020 00:50
Rain, Partly cloudy
Rain, Partly cloudy
 Wind from W
Wind: W 18 mph , 30 km/h
Temperature: 5°C
Wind Chill: 0°C
Dew Point: 5°C
Humidity: 100%
Barometer: 1014 hPa
Summary: Rain
Clouds: Partly cloudy
Visibility: 1 mile , 2 km
Cloud details: Mostly cloudy 61 m
Partly cloudy 732 m
2020/04/01 23:50 EGOM 012350Z AUTO 26016KT 1500 RA BKN002/// SCT024/// 05/05 Q1014
 
EGNC - Carlisle, United Kingdom
Distance from station: SSE 51mi, 82km
Updated: 27/03/2020 14:50
NOT Current
Mostly cloudy
Mostly cloudy
 Wind from ENE
Wind: ENE 9 mph , 15 km/h
Temperature: 11°C
Dew Point: 4°C
Humidity: 62%
Barometer: 1029 hPa
Clouds: Mostly cloudy
Visibility: 6 miles , 9 km
Cloud details: Few Clouds 1067 m
Mostly cloudy 1372 m
2020/03/27 14:50 EGNC 271450Z 07008KT 050V110 9000 FEW035 BKN045 11/04 Q1029
EGPF - Glasgow Airport, United Kingdom
Distance from station: WNW 51mi, 82km
Updated: 02/04/2020 01:20
Mostly cloudy
Mostly cloudy
 Wind from WSW
Wind: WSW 16 mph , 26 km/h
Temperature: 8°C
Wind Chill: 4°C
Dew Point: 3°C
Humidity: 71%
Barometer: 1015 hPa
Clouds: Mostly cloudy
Visibility: 6 miles , 10 km
Cloud details: Mostly cloudy 1097 m
2020/04/02 00:20 EGPF 020020Z AUTO 25014KT 9999 BKN036 08/03 Q1015
 
EGQL - Leuchars Raf, United Kingdom
Distance from station: NNE 53mi, 85km
Updated: 02/04/2020 00:50
Clear
Clear
 Wind from WSW
Wind: WSW 18 mph , 30 km/h
Temperature: 6°C
Wind Chill: 2°C
Dew Point: 4°C
Humidity: 87%
Barometer: 1012 hPa
Summary: Clear
Visibility: greater than 7 miles , 10 km
2020/04/01 23:50 EGQL 012350Z 25016KT CAVOK 06/04 Q1012 BLU
EGPK - Prestwick(Civ/Na, United Kingdom
Distance from station: W 55mi, 89km
Updated: 02/04/2020 00:50
Partly cloudy
Partly cloudy
 Wind from W
Wind: W 13 mph , 20 km/h
Temperature: 8°C
Wind Chill: 4°C
Dew Point: 4°C
Humidity: 76%
Barometer: 1017 hPa
Clouds: Partly cloudy
Visibility: 6 miles , 10 km
Cloud details: Few Clouds 427 m
Partly cloudy 610 m
2020/04/01 23:50 EGPK 012350Z 26011KT 9999 FEW014 SCT020 08/04 Q1017
 
EGPN - Dundee/Riverside, United Kingdom
Distance from station: N 56mi, 90km
Updated: 01/04/2020 20:20
NOT Current
Few Clouds
Few Clouds
 Wind from W
Wind: W 13 mph , 20 km/h
Temperature: 10°C
Wind Chill: 7°C
Dew Point: 6°C
Humidity: 76%
Barometer: 1015 hPa
Clouds: Few Clouds
Visibility: 6 miles , 10 km
Cloud details: Few Clouds 1219 m
2020/04/01 19:20 EGPN 011920Z 26011KT 9999 FEW040 10/06 Q1015
EGNT - Newcastle, United Kingdom
Distance from station: SE 72mi, 116km
Updated: 02/04/2020 01:20
Few Clouds
Few Clouds
 Wind from W
Wind: W 16 mph , 26 km/h
Temperature: 7°C
Wind Chill: 3°C
Dew Point: 4°C
Humidity: 81%
Barometer: 1014 hPa
Clouds: Few Clouds
Visibility: 6 miles , 10 km
Cloud details: Few Clouds 1006 m
2020/04/02 00:20 EGNT 020020Z AUTO 27014KT 9999 FEW033/// 07/04 Q1014
 
EGNV - Tees-Side, United Kingdom
Distance from station: SE 104mi, 168km
Updated: 01/04/2020 21:20
NOT Current
Clear
Clear
 Wind from WNW
Wind: WNW 13 mph , 20 km/h
Temperature: 8°C
Wind Chill: 4°C
Dew Point: 3°C
Humidity: 71%
Barometer: 1017 hPa
Summary: Clear
Visibility: greater than 7 miles , 10 km
2020/04/01 20:20 EGNV 012020Z 29011KT CAVOK 08/03 Q1017
EGPD - Aberdeen/Dyce, United Kingdom
Distance from station: NNE 114mi, 183km
Updated: 02/04/2020 01:20
Clear
Clear
 Wind from WSW
Wind: WSW 7 mph , 11 km/h
Temperature: 4°C
Wind Chill: 1°C
Dew Point: -1°C
Humidity: 70%
Barometer: 1009 hPa
Clouds: Clear
Visibility: 6 miles , 10 km
2020/04/02 00:20 EGPD 020020Z AUTO 25006KT 9999 NCD 04/M01 Q1009 NOSIG
 
EGNS - Isle Of Man/Rona, United Kingdom
Distance from station: SSW 122mi, 197km
Updated: 02/04/2020 00:50
Overcast
Overcast
 Wind from W
Wind: W 13 mph , 20 km/h
Temperature: 8°C
Wind Chill: 4°C
Dew Point: 6°C
Humidity: 87%
Barometer: 1019 hPa
Clouds: Overcast
Visibility: 6 miles , 10 km
Cloud details: Partly cloudy 335 m
Overcast 1280 m
2020/04/01 23:50 EGNS 012350Z 28011KT 9999 SCT011 OVC042 08/06 Q1019
EGAC - Belfast Harbour, United Kingdom
Distance from station: WSW 128mi, 206km
Updated: 02/04/2020 01:20
Mostly cloudy
Mostly cloudy
 Wind from W
Wind: W 7 mph , 11 km/h
Temperature: 8°C
Wind Chill: 6°C
Dew Point: 6°C
Humidity: 87%
Barometer: 1019 hPa
Clouds: Mostly cloudy
Visibility: 6 miles , 10 km
Cloud details: Mostly cloudy 1280 m
2020/04/02 00:20 EGAC 020020Z AUTO 26006KT 220V290 9999 BKN042/// 08/06 Q1019
 
EGPE - Inverness/Dalcro, United Kingdom
Distance from station: NNW 134mi, 215km
Updated: 02/04/2020 01:20
Overcast
Overcast
 Wind from SW
Wind: SW 26 mph , 43 km/h, Gust: 41 mph , 67 km/h
Temperature: 8°C
Wind Chill: 3°C
Dew Point: 2°C
Humidity: 66%
Barometer: 1009 hPa
Clouds: Overcast
Visibility: 6 miles , 10 km
Cloud details: Overcast 1158 m
2020/04/02 00:20 EGPE 020020Z AUTO 22023G36KT 9999 OVC038/// 08/02 Q1009
XHTML 1.1 | CSS